sensor_id;sensor_type;location;lat;lon;timestamp;P1;durP1;ratioP1;P2;durP2;ratioP2
35444;SDS011;21562;49.476;6.086;2024-01-11T00:01:46;50.65;;;19.58;;
35444;SDS011;21562;49.476;6.086;2024-01-11T00:04:12;47.83;;;20.08;;
35444;SDS011;21562;49.476;6.086;2024-01-11T00:06:42;52.50;;;19.48;;
35444;SDS011;21562;49.476;6.086;2024-01-11T00:09:08;53.00;;;19.90;;
35444;SDS011;21562;49.476;6.086;2024-01-11T00:11:34;47.45;;;20.00;;
35444;SDS011;21562;49.476;6.086;2024-01-11T00:14:00;62.10;;;23.60;;
35444;SDS011;21562;49.476;6.086;2024-01-11T00:16:25;57.28;;;21.35;;
35444;SDS011;21562;49.476;6.086;2024-01-11T00:18:51;58.40;;;21.20;;
35444;SDS011;21562;49.476;6.086;2024-01-11T00:21:17;53.88;;;22.08;;
35444;SDS011;21562;49.476;6.086;2024-01-11T00:23:42;74.32;;;27.70;;
35444;SDS011;21562;49.476;6.086;2024-01-11T00:26:08;60.42;;;24.10;;
35444;SDS011;21562;49.476;6.086;2024-01-11T00:28:36;66.50;;;21.95;;
35444;SDS011;21562;49.476;6.086;2024-01-11T00:31:02;51.58;;;21.38;;
35444;SDS011;21562;49.476;6.086;2024-01-11T00:33:28;52.72;;;20.77;;
35444;SDS011;21562;49.476;6.086;2024-01-11T00:35:54;56.50;;;20.40;;
35444;SDS011;21562;49.476;6.086;2024-01-11T00:38:19;49.25;;;19.95;;
35444;SDS011;21562;49.476;6.086;2024-01-11T00:40:45;54.95;;;20.15;;
35444;SDS011;21562;49.476;6.086;2024-01-11T00:43:11;42.28;;;17.98;;
35444;SDS011;21562;49.476;6.086;2024-01-11T00:45:36;46.72;;;18.75;;
35444;SDS011;21562;49.476;6.086;2024-01-11T00:48:02;48.78;;;17.95;;
35444;SDS011;21562;49.476;6.086;2024-01-11T00:50:28;44.45;;;17.65;;
35444;SDS011;21562;49.476;6.086;2024-01-11T00:52:54;49.53;;;18.48;;
35444;SDS011;21562;49.476;6.086;2024-01-11T00:55:20;50.30;;;19.48;;
35444;SDS011;21562;49.476;6.086;2024-01-11T00:57:45;45.17;;;17.63;;
35444;SDS011;21562;49.476;6.086;2024-01-11T01:00:11;45.38;;;17.55;;
35444;SDS011;21562;49.476;6.086;2024-01-11T01:02:39;45.97;;;18.85;;
35444;SDS011;21562;49.476;6.086;2024-01-11T01:05:05;48.45;;;18.42;;
35444;SDS011;21562;49.476;6.086;2024-01-11T01:07:31;46.00;;;19.25;;
35444;SDS011;21562;49.476;6.086;2024-01-11T01:09:57;48.63;;;19.25;;
35444;SDS011;21562;49.476;6.086;2024-01-11T01:12:22;47.55;;;19.77;;
35444;SDS011;21562;49.476;6.086;2024-01-11T01:14:50;49.45;;;18.67;;
35444;SDS011;21562;49.476;6.086;2024-01-11T01:17:16;45.58;;;18.52;;
35444;SDS011;21562;49.476;6.086;2024-01-11T01:19:41;43.38;;;17.88;;
35444;SDS011;21562;49.476;6.086;2024-01-11T01:22:07;45.10;;;19.10;;
35444;SDS011;21562;49.476;6.086;2024-01-11T01:24:33;41.97;;;16.63;;
35444;SDS011;21562;49.476;6.086;2024-01-11T01:26:58;45.00;;;19.35;;
35444;SDS011;21562;49.476;6.086;2024-01-11T01:29:25;46.83;;;18.75;;
35444;SDS011;21562;49.476;6.086;2024-01-11T01:31:51;44.35;;;19.08;;
35444;SDS011;21562;49.476;6.086;2024-01-11T01:34:17;46.83;;;18.83;;
35444;SDS011;21562;49.476;6.086;2024-01-11T01:36:43;45.83;;;18.15;;
35444;SDS011;21562;49.476;6.086;2024-01-11T01:39:08;49.88;;;19.38;;
35444;SDS011;21562;49.476;6.086;2024-01-11T01:41:34;46.28;;;18.48;;
35444;SDS011;21562;49.476;6.086;2024-01-11T01:44:00;45.40;;;18.35;;
35444;SDS011;21562;49.476;6.086;2024-01-11T01:46:25;50.35;;;18.92;;
35444;SDS011;21562;49.476;6.086;2024-01-11T01:48:53;36.47;;;16.25;;
35444;SDS011;21562;49.476;6.086;2024-01-11T01:51:20;48.80;;;17.38;;
35444;SDS011;21562;49.476;6.086;2024-01-11T01:53:47;42.80;;;18.05;;
35444;SDS011;21562;49.476;6.086;2024-01-11T01:56:15;45.22;;;18.00;;
35444;SDS011;21562;49.476;6.086;2024-01-11T01:58:42;45.20;;;17.98;;
35444;SDS011;21562;49.476;6.086;2024-01-11T02:01:08;43.58;;;17.92;;
35444;SDS011;21562;49.476;6.086;2024-01-11T02:03:34;46.38;;;17.95;;
35444;SDS011;21562;49.476;6.086;2024-01-11T02:06:01;46.53;;;18.52;;
35444;SDS011;21562;49.476;6.086;2024-01-11T02:08:29;42.17;;;17.80;;
35444;SDS011;21562;49.476;6.086;2024-01-11T02:10:56;49.25;;;17.45;;
35444;SDS011;21562;49.476;6.086;2024-01-11T02:13:24;45.47;;;18.65;;
35444;SDS011;21562;49.476;6.086;2024-01-11T02:15:50;43.25;;;18.38;;
35444;SDS011;21562;49.476;6.086;2024-01-11T02:18:16;42.95;;;17.75;;
35444;SDS011;21562;49.476;6.086;2024-01-11T02:20:42;41.67;;;17.00;;
35444;SDS011;21562;49.476;6.086;2024-01-11T02:23:08;44.53;;;19.10;;
35444;SDS011;21562;49.476;6.086;2024-01-11T02:25:39;43.58;;;17.48;;
35444;SDS011;21562;49.476;6.086;2024-01-11T02:28:05;45.92;;;17.92;;
35444;SDS011;21562;49.476;6.086;2024-01-11T02:30:33;43.30;;;17.15;;
35444;SDS011;21562;49.476;6.086;2024-01-11T02:32:59;47.80;;;18.48;;
35444;SDS011;21562;49.476;6.086;2024-01-11T02:35:26;49.80;;;17.77;;
35444;SDS011;21562;49.476;6.086;2024-01-11T02:37:53;41.33;;;18.25;;
35444;SDS011;21562;49.476;6.086;2024-01-11T02:40:19;43.38;;;17.60;;
35444;SDS011;21562;49.476;6.086;2024-01-11T02:42:45;44.17;;;16.77;;
35444;SDS011;21562;49.476;6.086;2024-01-11T02:45:11;44.50;;;16.92;;
35444;SDS011;21562;49.476;6.086;2024-01-11T02:47:40;48.67;;;17.70;;
35444;SDS011;21562;49.476;6.086;2024-01-11T02:50:06;47.13;;;18.20;;
35444;SDS011;21562;49.476;6.086;2024-01-11T02:52:32;42.08;;;17.48;;
35444;SDS011;21562;49.476;6.086;2024-01-11T02:54:58;42.42;;;17.30;;
35444;SDS011;21562;49.476;6.086;2024-01-11T02:57:24;35.80;;;16.05;;
35444;SDS011;21562;49.476;6.086;2024-01-11T02:59:50;42.53;;;16.42;;
35444;SDS011;21562;49.476;6.086;2024-01-11T03:02:16;47.65;;;18.10;;
35444;SDS011;21562;49.476;6.086;2024-01-11T03:04:42;43.75;;;17.50;;
35444;SDS011;21562;49.476;6.086;2024-01-11T03:07:08;41.72;;;16.23;;
35444;SDS011;21562;49.476;6.086;2024-01-11T03:09:33;46.83;;;18.42;;
35444;SDS011;21562;49.476;6.086;2024-01-11T03:11:59;45.40;;;17.98;;
35444;SDS011;21562;49.476;6.086;2024-01-11T03:14:25;39.70;;;16.83;;
35444;SDS011;21562;49.476;6.086;2024-01-11T03:16:51;40.38;;;16.38;;
35444;SDS011;21562;49.476;6.086;2024-01-11T03:19:16;44.08;;;18.48;;
35444;SDS011;21562;49.476;6.086;2024-01-11T03:21:43;43.83;;;17.98;;
35444;SDS011;21562;49.476;6.086;2024-01-11T03:24:09;42.22;;;16.58;;
35444;SDS011;21562;49.476;6.086;2024-01-11T03:26:34;40.15;;;16.58;;
35444;SDS011;21562;49.476;6.086;2024-01-11T03:29:00;41.97;;;16.95;;
35444;SDS011;21562;49.476;6.086;2024-01-11T03:31:26;42.40;;;17.55;;
35444;SDS011;21562;49.476;6.086;2024-01-11T03:33:51;44.10;;;17.75;;
35444;SDS011;21562;49.476;6.086;2024-01-11T03:36:17;44.03;;;17.75;;
35444;SDS011;21562;49.476;6.086;2024-01-11T03:38:43;41.65;;;17.05;;
35444;SDS011;21562;49.476;6.086;2024-01-11T03:41:09;46.08;;;17.40;;
35444;SDS011;21562;49.476;6.086;2024-01-11T03:43:35;42.92;;;17.00;;
35444;SDS011;21562;49.476;6.086;2024-01-11T03:46:01;43.90;;;17.48;;
35444;SDS011;21562;49.476;6.086;2024-01-11T03:48:28;43.20;;;17.83;;
35444;SDS011;21562;49.476;6.086;2024-01-11T03:50:53;46.10;;;17.45;;
35444;SDS011;21562;49.476;6.086;2024-01-11T03:53:19;48.25;;;18.88;;
35444;SDS011;21562;49.476;6.086;2024-01-11T03:55:45;43.40;;;17.73;;
35444;SDS011;21562;49.476;6.086;2024-01-11T03:58:11;42.28;;;17.15;;
35444;SDS011;21562;49.476;6.086;2024-01-11T04:00:36;43.28;;;16.83;;
35444;SDS011;21562;49.476;6.086;2024-01-11T04:03:02;44.35;;;18.00;;
35444;SDS011;21562;49.476;6.086;2024-01-11T04:05:28;46.63;;;18.50;;
35444;SDS011;21562;49.476;6.086;2024-01-11T04:07:54;45.60;;;17.85;;
35444;SDS011;21562;49.476;6.086;2024-01-11T04:10:19;42.63;;;16.60;;
35444;SDS011;21562;49.476;6.086;2024-01-11T04:12:45;38.53;;;16.33;;
35444;SDS011;21562;49.476;6.086;2024-01-11T04:15:11;44.42;;;17.80;;
35444;SDS011;21562;49.476;6.086;2024-01-11T04:17:38;48.45;;;17.65;;
35444;SDS011;21562;49.476;6.086;2024-01-11T04:20:05;43.08;;;17.48;;
35444;SDS011;21562;49.476;6.086;2024-01-11T04:22:31;51.25;;;18.45;;
35444;SDS011;21562;49.476;6.086;2024-01-11T04:24:57;43.67;;;17.98;;
35444;SDS011;21562;49.476;6.086;2024-01-11T04:27:23;48.88;;;17.95;;
35444;SDS011;21562;49.476;6.086;2024-01-11T04:29:49;43.78;;;17.33;;
35444;SDS011;21562;49.476;6.086;2024-01-11T04:32:14;41.88;;;16.52;;
35444;SDS011;21562;49.476;6.086;2024-01-11T04:34:40;45.42;;;17.13;;
35444;SDS011;21562;49.476;6.086;2024-01-11T04:37:06;48.15;;;18.10;;
35444;SDS011;21562;49.476;6.086;2024-01-11T04:39:32;56.00;;;20.58;;
35444;SDS011;21562;49.476;6.086;2024-01-11T04:41:57;50.00;;;19.27;;
35444;SDS011;21562;49.476;6.086;2024-01-11T04:44:24;50.90;;;20.50;;
35444;SDS011;21562;49.476;6.086;2024-01-11T04:46:49;48.00;;;18.35;;
35444;SDS011;21562;49.476;6.086;2024-01-11T04:49:15;52.50;;;18.88;;
35444;SDS011;21562;49.476;6.086;2024-01-11T04:51:41;43.65;;;17.85;;
35444;SDS011;21562;49.476;6.086;2024-01-11T04:54:07;45.70;;;18.05;;
35444;SDS011;21562;49.476;6.086;2024-01-11T04:56:33;50.67;;;18.85;;
35444;SDS011;21562;49.476;6.086;2024-01-11T04:58:59;42.90;;;17.13;;
35444;SDS011;21562;49.476;6.086;2024-01-11T05:01:25;49.05;;;18.00;;
35444;SDS011;21562;49.476;6.086;2024-01-11T05:03:50;42.20;;;17.17;;
35444;SDS011;21562;49.476;6.086;2024-01-11T05:08:47;43.70;;;18.35;;
35444;SDS011;21562;49.476;6.086;2024-01-11T05:11:15;42.40;;;17.88;;
35444;SDS011;21562;49.476;6.086;2024-01-11T05:13:44;41.95;;;16.65;;
35444;SDS011;21562;49.476;6.086;2024-01-11T05:16:19;45.42;;;18.10;;
35444;SDS011;21562;49.476;6.086;2024-01-11T05:18:46;48.85;;;18.42;;
35444;SDS011;21562;49.476;6.086;2024-01-11T05:21:12;49.55;;;18.90;;
35444;SDS011;21562;49.476;6.086;2024-01-11T05:23:37;41.03;;;16.40;;
35444;SDS011;21562;49.476;6.086;2024-01-11T05:26:04;47.80;;;19.08;;
35444;SDS011;21562;49.476;6.086;2024-01-11T05:28:30;48.17;;;17.95;;
35444;SDS011;21562;49.476;6.086;2024-01-11T05:30:56;44.97;;;18.20;;
35444;SDS011;21562;49.476;6.086;2024-01-11T05:33:22;43.72;;;18.30;;
35444;SDS011;21562;49.476;6.086;2024-01-11T05:35:47;42.95;;;16.95;;
35444;SDS011;21562;49.476;6.086;2024-01-11T05:38:13;45.70;;;18.13;;
35444;SDS011;21562;49.476;6.086;2024-01-11T05:40:38;47.65;;;19.00;;
35444;SDS011;21562;49.476;6.086;2024-01-11T05:43:04;42.28;;;18.60;;
35444;SDS011;21562;49.476;6.086;2024-01-11T05:45:30;41.00;;;16.40;;
35444;SDS011;21562;49.476;6.086;2024-01-11T05:47:55;49.13;;;18.02;;
35444;SDS011;21562;49.476;6.086;2024-01-11T05:50:21;46.53;;;18.90;;
35444;SDS011;21562;49.476;6.086;2024-01-11T05:52:47;39.53;;;16.60;;
35444;SDS011;21562;49.476;6.086;2024-01-11T05:55:12;40.63;;;17.35;;
35444;SDS011;21562;49.476;6.086;2024-01-11T05:57:38;46.33;;;17.05;;
35444;SDS011;21562;49.476;6.086;2024-01-11T06:00:04;40.90;;;17.05;;
35444;SDS011;21562;49.476;6.086;2024-01-11T06:02:30;47.58;;;17.52;;
35444;SDS011;21562;49.476;6.086;2024-01-11T06:04:56;43.72;;;18.15;;
35444;SDS011;21562;49.476;6.086;2024-01-11T06:07:22;49.72;;;18.13;;
35444;SDS011;21562;49.476;6.086;2024-01-11T06:09:48;48.25;;;18.75;;
35444;SDS011;21562;49.476;6.086;2024-01-11T06:12:14;47.75;;;18.17;;
35444;SDS011;21562;49.476;6.086;2024-01-11T06:14:40;43.60;;;17.92;;
35444;SDS011;21562;49.476;6.086;2024-01-11T06:17:06;41.00;;;17.83;;
35444;SDS011;21562;49.476;6.086;2024-01-11T06:19:31;41.75;;;18.05;;
35444;SDS011;21562;49.476;6.086;2024-01-11T06:21:57;47.33;;;18.42;;
35444;SDS011;21562;49.476;6.086;2024-01-11T06:24:23;46.45;;;18.70;;
35444;SDS011;21562;49.476;6.086;2024-01-11T06:26:49;55.70;;;19.08;;
35444;SDS011;21562;49.476;6.086;2024-01-11T06:29:14;49.53;;;19.30;;
35444;SDS011;21562;49.476;6.086;2024-01-11T06:31:40;47.67;;;17.63;;
35444;SDS011;21562;49.476;6.086;2024-01-11T06:34:06;45.58;;;18.60;;
35444;SDS011;21562;49.476;6.086;2024-01-11T06:36:31;47.10;;;18.58;;
35444;SDS011;21562;49.476;6.086;2024-01-11T06:38:57;51.38;;;18.60;;
35444;SDS011;21562;49.476;6.086;2024-01-11T06:41:25;48.45;;;17.55;;
35444;SDS011;21562;49.476;6.086;2024-01-11T06:43:50;45.05;;;18.17;;
35444;SDS011;21562;49.476;6.086;2024-01-11T06:46:19;46.42;;;18.92;;
35444;SDS011;21562;49.476;6.086;2024-01-11T06:48:48;47.50;;;18.30;;
35444;SDS011;21562;49.476;6.086;2024-01-11T06:51:20;48.70;;;19.90;;
35444;SDS011;21562;49.476;6.086;2024-01-11T06:53:46;42.63;;;19.30;;
35444;SDS011;21562;49.476;6.086;2024-01-11T06:56:16;45.72;;;19.10;;
35444;SDS011;21562;49.476;6.086;2024-01-11T06:58:43;49.25;;;18.98;;
35444;SDS011;21562;49.476;6.086;2024-01-11T07:01:10;45.55;;;19.38;;
35444;SDS011;21562;49.476;6.086;2024-01-11T07:03:39;44.85;;;18.30;;
35444;SDS011;21562;49.476;6.086;2024-01-11T07:06:06;57.30;;;21.73;;
35444;SDS011;21562;49.476;6.086;2024-01-11T07:08:32;69.57;;;26.98;;
35444;SDS011;21562;49.476;6.086;2024-01-11T07:10:59;54.90;;;22.30;;
35444;SDS011;21562;49.476;6.086;2024-01-11T07:13:25;48.83;;;19.90;;
35444;SDS011;21562;49.476;6.086;2024-01-11T07:15:51;48.22;;;19.35;;
35444;SDS011;21562;49.476;6.086;2024-01-11T07:18:17;50.65;;;19.42;;
35444;SDS011;21562;49.476;6.086;2024-01-11T07:20:43;45.88;;;20.05;;
35444;SDS011;21562;49.476;6.086;2024-01-11T07:23:09;44.08;;;18.45;;
35444;SDS011;21562;49.476;6.086;2024-01-11T07:25:35;50.13;;;20.20;;
35444;SDS011;21562;49.476;6.086;2024-01-11T07:28:01;48.10;;;19.73;;
35444;SDS011;21562;49.476;6.086;2024-01-11T07:30:26;47.35;;;18.88;;
35444;SDS011;21562;49.476;6.086;2024-01-11T07:32:52;44.25;;;17.92;;
35444;SDS011;21562;49.476;6.086;2024-01-11T07:35:19;48.00;;;19.15;;
35444;SDS011;21562;49.476;6.086;2024-01-11T07:37:45;53.55;;;20.63;;
35444;SDS011;21562;49.476;6.086;2024-01-11T07:40:11;51.53;;;19.92;;
35444;SDS011;21562;49.476;6.086;2024-01-11T07:42:37;47.25;;;19.33;;
35444;SDS011;21562;49.476;6.086;2024-01-11T07:45:04;52.35;;;20.02;;
35444;SDS011;21562;49.476;6.086;2024-01-11T07:47:30;51.55;;;19.63;;
35444;SDS011;21562;49.476;6.086;2024-01-11T07:49:56;70.03;;;25.70;;
35444;SDS011;21562;49.476;6.086;2024-01-11T07:52:22;64.28;;;23.08;;
35444;SDS011;21562;49.476;6.086;2024-01-11T07:54:48;51.95;;;20.52;;
35444;SDS011;21562;49.476;6.086;2024-01-11T07:57:13;55.33;;;20.92;;
35444;SDS011;21562;49.476;6.086;2024-01-11T07:59:39;43.63;;;17.42;;
35444;SDS011;21562;49.476;6.086;2024-01-11T08:02:05;48.42;;;19.40;;
35444;SDS011;21562;49.476;6.086;2024-01-11T08:04:31;52.33;;;19.75;;
35444;SDS011;21562;49.476;6.086;2024-01-11T08:06:57;49.90;;;20.10;;
35444;SDS011;21562;49.476;6.086;2024-01-11T08:09:27;46.75;;;19.02;;
35444;SDS011;21562;49.476;6.086;2024-01-11T08:11:53;50.90;;;19.63;;
35444;SDS011;21562;49.476;6.086;2024-01-11T08:14:19;49.15;;;19.08;;
35444;SDS011;21562;49.476;6.086;2024-01-11T08:16:45;51.58;;;19.35;;
35444;SDS011;21562;49.476;6.086;2024-01-11T08:19:11;47.20;;;20.40;;
35444;SDS011;21562;49.476;6.086;2024-01-11T08:21:39;54.92;;;20.65;;
35444;SDS011;21562;49.476;6.086;2024-01-11T08:24:06;52.22;;;19.65;;
35444;SDS011;21562;49.476;6.086;2024-01-11T08:26:32;54.60;;;21.42;;
35444;SDS011;21562;49.476;6.086;2024-01-11T08:28:58;49.08;;;21.20;;
35444;SDS011;21562;49.476;6.086;2024-01-11T08:31:24;52.00;;;19.55;;
35444;SDS011;21562;49.476;6.086;2024-01-11T08:33:50;56.35;;;21.48;;
35444;SDS011;21562;49.476;6.086;2024-01-11T08:36:16;46.55;;;19.00;;
35444;SDS011;21562;49.476;6.086;2024-01-11T08:38:42;52.70;;;20.05;;
35444;SDS011;21562;49.476;6.086;2024-01-11T08:41:08;50.35;;;19.90;;
35444;SDS011;21562;49.476;6.086;2024-01-11T08:43:33;50.33;;;20.05;;
35444;SDS011;21562;49.476;6.086;2024-01-11T08:45:59;52.13;;;21.13;;
35444;SDS011;21562;49.476;6.086;2024-01-11T08:48:27;53.58;;;19.42;;
35444;SDS011;21562;49.476;6.086;2024-01-11T08:50:53;52.83;;;20.52;;
35444;SDS011;21562;49.476;6.086;2024-01-11T08:53:19;44.38;;;18.90;;
35444;SDS011;21562;49.476;6.086;2024-01-11T08:55:45;49.83;;;19.42;;
35444;SDS011;21562;49.476;6.086;2024-01-11T08:58:10;50.92;;;19.98;;
35444;SDS011;21562;49.476;6.086;2024-01-11T09:00:37;53.00;;;19.55;;
35444;SDS011;21562;49.476;6.086;2024-01-11T09:03:02;47.25;;;18.52;;
35444;SDS011;21562;49.476;6.086;2024-01-11T09:05:29;48.92;;;18.80;;
35444;SDS011;21562;49.476;6.086;2024-01-11T09:07:54;44.03;;;18.65;;
35444;SDS011;21562;49.476;6.086;2024-01-11T09:10:20;46.92;;;19.92;;
35444;SDS011;21562;49.476;6.086;2024-01-11T09:12:46;46.97;;;19.48;;
35444;SDS011;21562;49.476;6.086;2024-01-11T09:15:12;45.95;;;18.30;;
35444;SDS011;21562;49.476;6.086;2024-01-11T09:17:37;47.72;;;18.25;;
35444;SDS011;21562;49.476;6.086;2024-01-11T09:20:04;47.65;;;20.15;;
35444;SDS011;21562;49.476;6.086;2024-01-11T09:22:30;46.20;;;19.50;;
35444;SDS011;21562;49.476;6.086;2024-01-11T09:24:56;47.88;;;19.30;;
35444;SDS011;21562;49.476;6.086;2024-01-11T09:27:21;45.13;;;17.70;;
35444;SDS011;21562;49.476;6.086;2024-01-11T09:29:47;49.40;;;19.27;;
35444;SDS011;21562;49.476;6.086;2024-01-11T09:32:13;43.13;;;18.00;;
35444;SDS011;21562;49.476;6.086;2024-01-11T09:34:39;44.05;;;18.42;;
35444;SDS011;21562;49.476;6.086;2024-01-11T09:37:05;39.65;;;17.75;;
35444;SDS011;21562;49.476;6.086;2024-01-11T09:39:30;48.42;;;18.08;;
35444;SDS011;21562;49.476;6.086;2024-01-11T09:42:17;48.28;;;18.42;;
35444;SDS011;21562;49.476;6.086;2024-01-11T09:44:43;44.55;;;16.92;;
35444;SDS011;21562;49.476;6.086;2024-01-11T09:47:10;49.22;;;19.00;;
35444;SDS011;21562;49.476;6.086;2024-01-11T09:49:36;39.97;;;16.95;;
35444;SDS011;21562;49.476;6.086;2024-01-11T09:52:04;42.58;;;17.83;;
35444;SDS011;21562;49.476;6.086;2024-01-11T09:54:30;45.70;;;18.40;;
35444;SDS011;21562;49.476;6.086;2024-01-11T09:56:57;41.42;;;17.92;;
35444;SDS011;21562;49.476;6.086;2024-01-11T09:59:24;42.10;;;17.60;;
35444;SDS011;21562;49.476;6.086;2024-01-11T10:01:50;48.22;;;19.17;;
35444;SDS011;21562;49.476;6.086;2024-01-11T10:04:17;63.92;;;27.27;;
35444;SDS011;21562;49.476;6.086;2024-01-11T10:06:44;92.95;;;27.30;;
35444;SDS011;21562;49.476;6.086;2024-01-11T10:09:10;57.40;;;19.95;;
35444;SDS011;21562;49.476;6.086;2024-01-11T10:11:37;39.17;;;15.88;;
35444;SDS011;21562;49.476;6.086;2024-01-11T10:14:03;39.55;;;16.25;;
35444;SDS011;21562;49.476;6.086;2024-01-11T10:16:30;40.05;;;17.58;;
35444;SDS011;21562;49.476;6.086;2024-01-11T10:18:56;39.47;;;16.25;;
35444;SDS011;21562;49.476;6.086;2024-01-11T10:21:23;39.65;;;16.00;;
35444;SDS011;21562;49.476;6.086;2024-01-11T10:23:49;39.70;;;16.73;;
35444;SDS011;21562;49.476;6.086;2024-01-11T10:26:15;37.28;;;17.48;;
35444;SDS011;21562;49.476;6.086;2024-01-11T10:28:45;36.97;;;16.08;;
35444;SDS011;21562;49.476;6.086;2024-01-11T10:31:11;39.95;;;16.25;;
35444;SDS011;21562;49.476;6.086;2024-01-11T10:33:40;36.80;;;16.15;;
35444;SDS011;21562;49.476;6.086;2024-01-11T10:36:06;32.83;;;15.18;;
35444;SDS011;21562;49.476;6.086;2024-01-11T10:38:38;33.95;;;15.73;;
35444;SDS011;21562;49.476;6.086;2024-01-11T10:41:05;35.47;;;15.18;;
35444;SDS011;21562;49.476;6.086;2024-01-11T10:43:31;38.38;;;15.68;;
35444;SDS011;21562;49.476;6.086;2024-01-11T10:46:00;35.65;;;15.55;;
35444;SDS011;21562;49.476;6.086;2024-01-11T10:48:30;39.55;;;14.05;;
35444;SDS011;21562;49.476;6.086;2024-01-11T10:51:01;31.23;;;14.20;;
35444;SDS011;21562;49.476;6.086;2024-01-11T10:56:07;32.92;;;15.02;;
35444;SDS011;21562;49.476;6.086;2024-01-11T10:58:37;40.92;;;16.48;;
35444;SDS011;21562;49.476;6.086;2024-01-11T11:01:07;34.50;;;14.63;;
35444;SDS011;21562;49.476;6.086;2024-01-11T11:03:37;40.83;;;15.23;;
35444;SDS011;21562;49.476;6.086;2024-01-11T11:06:07;36.45;;;14.68;;
35444;SDS011;21562;49.476;6.086;2024-01-11T11:08:33;34.17;;;14.32;;
35444;SDS011;21562;49.476;6.086;2024-01-11T11:11:01;35.05;;;15.18;;
35444;SDS011;21562;49.476;6.086;2024-01-11T11:13:31;34.53;;;15.93;;
35444;SDS011;21562;49.476;6.086;2024-01-11T11:15:59;31.73;;;14.60;;
35444;SDS011;21562;49.476;6.086;2024-01-11T11:18:25;36.42;;;14.70;;
35444;SDS011;21562;49.476;6.086;2024-01-11T11:20:51;34.08;;;15.25;;
35444;SDS011;21562;49.476;6.086;2024-01-11T11:23:19;35.70;;;14.48;;
35444;SDS011;21562;49.476;6.086;2024-01-11T11:25:45;33.97;;;15.10;;
35444;SDS011;21562;49.476;6.086;2024-01-11T11:28:12;30.08;;;9.52;;
35444;SDS011;21562;49.476;6.086;2024-01-11T11:30:40;31.92;;;15.18;;
35444;SDS011;21562;49.476;6.086;2024-01-11T11:33:08;33.03;;;14.55;;
35444;SDS011;21562;49.476;6.086;2024-01-11T11:35:35;30.35;;;14.73;;
35444;SDS011;21562;49.476;6.086;2024-01-11T11:38:01;30.85;;;14.15;;
35444;SDS011;21562;49.476;6.086;2024-01-11T11:40:36;35.92;;;15.20;;
35444;SDS011;21562;49.476;6.086;2024-01-11T11:43:07;31.05;;;13.82;;
35444;SDS011;21562;49.476;6.086;2024-01-11T11:45:33;36.88;;;15.10;;
35444;SDS011;21562;49.476;6.086;2024-01-11T11:47:59;31.10;;;14.65;;
35444;SDS011;21562;49.476;6.086;2024-01-11T11:50:25;32.22;;;14.52;;
35444;SDS011;21562;49.476;6.086;2024-01-11T11:52:54;32.25;;;15.80;;
35444;SDS011;21562;49.476;6.086;2024-01-11T11:55:22;39.78;;;16.02;;
35444;SDS011;21562;49.476;6.086;2024-01-11T11:57:49;34.47;;;15.45;;
35444;SDS011;21562;49.476;6.086;2024-01-11T12:00:17;36.67;;;16.00;;
35444;SDS011;21562;49.476;6.086;2024-01-11T12:02:42;36.42;;;15.18;;
35444;SDS011;21562;49.476;6.086;2024-01-11T12:05:08;33.08;;;15.45;;
35444;SDS011;21562;49.476;6.086;2024-01-11T12:07:34;37.40;;;14.73;;
35444;SDS011;21562;49.476;6.086;2024-01-11T12:10:00;35.15;;;15.32;;
35444;SDS011;21562;49.476;6.086;2024-01-11T12:12:26;33.03;;;14.98;;
35444;SDS011;21562;49.476;6.086;2024-01-11T12:14:53;36.65;;;15.75;;
35444;SDS011;21562;49.476;6.086;2024-01-11T12:17:19;36.03;;;15.68;;
35444;SDS011;21562;49.476;6.086;2024-01-11T12:19:45;31.58;;;16.10;;
35444;SDS011;21562;49.476;6.086;2024-01-11T12:22:10;30.63;;;15.32;;
35444;SDS011;21562;49.476;6.086;2024-01-11T12:24:36;33.15;;;15.38;;
35444;SDS011;21562;49.476;6.086;2024-01-11T12:27:02;31.10;;;14.48;;
35444;SDS011;21562;49.476;6.086;2024-01-11T12:29:29;34.28;;;15.50;;
35444;SDS011;21562;49.476;6.086;2024-01-11T12:31:58;30.38;;;14.93;;
35444;SDS011;21562;49.476;6.086;2024-01-11T12:34:24;31.02;;;14.00;;
35444;SDS011;21562;49.476;6.086;2024-01-11T12:36:51;37.60;;;15.85;;
35444;SDS011;21562;49.476;6.086;2024-01-11T12:39:18;34.75;;;14.63;;
35444;SDS011;21562;49.476;6.086;2024-01-11T12:41:47;31.13;;;14.95;;
35444;SDS011;21562;49.476;6.086;2024-01-11T12:44:19;35.75;;;16.73;;
35444;SDS011;21562;49.476;6.086;2024-01-11T12:46:47;31.83;;;15.57;;
35444;SDS011;21562;49.476;6.086;2024-01-11T12:49:14;33.38;;;14.32;;
35444;SDS011;21562;49.476;6.086;2024-01-11T12:51:40;34.50;;;15.90;;
35444;SDS011;21562;49.476;6.086;2024-01-11T12:54:10;27.60;;;13.82;;
35444;SDS011;21562;49.476;6.086;2024-01-11T12:56:41;36.30;;;14.90;;
35444;SDS011;21562;49.476;6.086;2024-01-11T12:59:10;34.53;;;14.38;;
35444;SDS011;21562;49.476;6.086;2024-01-11T13:01:36;35.55;;;14.88;;
35444;SDS011;21562;49.476;6.086;2024-01-11T13:04:07;36.85;;;15.35;;
35444;SDS011;21562;49.476;6.086;2024-01-11T13:06:34;34.38;;;15.07;;
35444;SDS011;21562;49.476;6.086;2024-01-11T13:09:00;34.05;;;15.38;;
35444;SDS011;21562;49.476;6.086;2024-01-11T13:11:26;30.48;;;13.18;;
35444;SDS011;21562;49.476;6.086;2024-01-11T13:13:53;36.08;;;15.45;;
35444;SDS011;21562;49.476;6.086;2024-01-11T13:16:19;37.53;;;15.25;;
35444;SDS011;21562;49.476;6.086;2024-01-11T13:18:45;31.30;;;14.07;;
35444;SDS011;21562;49.476;6.086;2024-01-11T13:21:11;34.13;;;14.77;;
35444;SDS011;21562;49.476;6.086;2024-01-11T13:23:37;32.05;;;14.57;;
35444;SDS011;21562;49.476;6.086;2024-01-11T13:26:04;35.92;;;13.90;;
35444;SDS011;21562;49.476;6.086;2024-01-11T13:28:31;28.05;;;14.00;;
35444;SDS011;21562;49.476;6.086;2024-01-11T13:30:57;28.02;;;12.90;;
35444;SDS011;21562;49.476;6.086;2024-01-11T13:33:22;25.60;;;12.52;;
35444;SDS011;21562;49.476;6.086;2024-01-11T13:35:49;26.75;;;13.38;;
35444;SDS011;21562;49.476;6.086;2024-01-11T13:38:14;32.20;;;12.63;;
35444;SDS011;21562;49.476;6.086;2024-01-11T13:40:41;30.83;;;12.93;;
35444;SDS011;21562;49.476;6.086;2024-01-11T13:43:08;31.05;;;13.32;;
35444;SDS011;21562;49.476;6.086;2024-01-11T13:45:34;28.13;;;11.85;;
35444;SDS011;21562;49.476;6.086;2024-01-11T13:48:04;28.88;;;12.73;;
35444;SDS011;21562;49.476;6.086;2024-01-11T13:50:30;27.10;;;12.10;;
35444;SDS011;21562;49.476;6.086;2024-01-11T13:52:56;30.70;;;12.55;;
35444;SDS011;21562;49.476;6.086;2024-01-11T13:55:22;27.90;;;12.13;;
35444;SDS011;21562;49.476;6.086;2024-01-11T13:57:48;32.78;;;12.82;;
35444;SDS011;21562;49.476;6.086;2024-01-11T14:00:15;24.13;;;11.07;;
35444;SDS011;21562;49.476;6.086;2024-01-11T14:02:42;26.38;;;12.20;;
35444;SDS011;21562;49.476;6.086;2024-01-11T14:05:08;25.45;;;12.02;;
35444;SDS011;21562;49.476;6.086;2024-01-11T14:07:37;26.05;;;11.93;;
35444;SDS011;21562;49.476;6.086;2024-01-11T14:10:04;28.33;;;11.98;;
35444;SDS011;21562;49.476;6.086;2024-01-11T14:12:31;28.50;;;11.40;;
35444;SDS011;21562;49.476;6.086;2024-01-11T14:14:57;25.83;;;11.38;;
35444;SDS011;21562;49.476;6.086;2024-01-11T14:17:23;25.25;;;10.43;;
35444;SDS011;21562;49.476;6.086;2024-01-11T14:19:48;26.10;;;10.68;;
35444;SDS011;21562;49.476;6.086;2024-01-11T14:22:14;24.25;;;11.27;;